Time;durP1;ratioP1;P1;durP2;ratioP2;P2;SDS_P1;SDS_P2;PMS_P1;PMS_P2;Temp;Humidity;BMP_temperature;BMP_pressure;BME280_temperature;BME280_humidity;BME280_pressure;Samples;Min_cycle;Max_cycle;Signal;HPM_P1;HPM_P2
2023/12/20 00:01:23;;;;;;;46.75;20.42;;;;;;;1.12;80.74;94255.69;5062677;28;20024;-75
2023/12/20 00:03:48;;;;;;;38.47;19.05;;;;;;;1.12;80.56;94260.94;5062915;28;20071;-74
2023/12/20 00:06:14;;;;;;;52.45;23.50;;;;;;;1.09;80.91;94250.94;5062974;28;20028;-74
2023/12/20 00:08:39;;;;;;;49.65;20.27;;;;;;;1.07;80.97;94240.69;5062594;28;20330;-74
2023/12/20 00:11:05;;;;;;;45.17;19.38;;;;;;;1.07;80.99;94245.16;5062805;28;20025;-75
2023/12/20 00:13:30;;;;;;;44.35;18.67;;;;;;;1.10;80.49;94244.66;5062923;28;20065;-73
2023/12/20 00:15:56;;;;;;;43.30;19.70;;;;;;;1.07;80.71;94237.28;5062665;28;20311;-73
2023/12/20 00:18:21;;;;;;;35.55;17.88;;;;;;;1.09;80.81;94240.44;5062866;28;20028;-73
2023/12/20 00:20:47;;;;;;;47.03;20.05;;;;;;;1.06;80.98;94226.00;5062614;28;20017;-73
2023/12/20 00:23:12;;;;;;;45.33;19.98;;;;;;;1.05;81.24;94228.84;5062438;28;20215;-74
2023/12/20 00:25:37;;;;;;;42.38;19.05;;;;;;;1.04;81.37;94229.88;5062528;28;20040;-73
2023/12/20 00:28:03;;;;;;;44.58;18.80;;;;;;;1.05;81.00;94228.84;5062722;28;20374;-73
2023/12/20 00:30:28;;;;;;;38.35;16.15;;;;;;;1.07;80.95;94219.69;5061924;28;20100;-73
2023/12/20 00:32:55;;;;;;;37.30;17.42;;;;;;;1.03;80.78;94223.06;5062700;28;20021;-72
2023/12/20 00:35:20;;;;;;;32.33;15.82;;;;;;;0.98;80.31;94221.94;5062673;28;20037;-73
2023/12/20 00:37:45;;;;;;;36.78;16.42;;;;;;;0.95;79.92;94205.88;5061638;28;20044;-74
2023/12/20 00:40:11;;;;;;;37.25;14.70;;;;;;;0.94;80.02;94212.97;5062414;28;20342;-74
2023/12/20 00:42:36;;;;;;;32.95;15.15;;;;;;;0.92;79.76;94204.56;5062818;28;20245;-74
2023/12/20 00:45:04;;;;;;;34.10;15.35;;;;;;;0.86;79.84;94199.50;5062274;28;20041;-74
2023/12/20 00:47:30;;;;;;;31.33;11.57;;;;;;;0.86;79.63;94202.13;5061431;28;20032;-74
2023/12/20 00:49:55;;;;;;;34.25;12.93;;;;;;;0.87;79.17;94201.84;5062671;28;20020;-74
2023/12/20 00:52:22;;;;;;;25.10;11.82;;;;;;;0.87;78.89;94196.59;5063489;28;20063;-73
2023/12/20 00:54:48;;;;;;;32.60;13.18;;;;;;;0.83;78.93;94200.75;5066453;28;20025;-75
2023/12/20 00:57:14;;;;;;;33.63;12.75;;;;;;;0.80;78.73;94196.00;5066323;28;20086;-76
2023/12/20 00:59:39;;;;;;;28.80;12.05;;;;;;;0.77;78.72;94197.28;5066224;28;20021;-75
2023/12/20 01:02:05;;;;;;;27.65;13.23;;;;;;;0.73;78.73;94190.13;5065734;28;20020;-76
2023/12/20 01:04:45;;;;;;;33.97;13.43;;;;;;;0.71;78.88;94173.84;5065578;28;20021;-76
2023/12/20 01:07:10;;;;;;;25.67;12.35;;;;;;;0.69;78.64;94179.34;5065827;28;20342;-76
2023/12/20 01:09:35;;;;;;;27.45;11.63;;;;;;;0.70;78.80;94180.13;5065559;28;20021;-76
2023/12/20 01:12:01;;;;;;;32.20;14.60;;;;;;;0.69;78.64;94176.72;5065659;28;20323;-76
2023/12/20 01:14:26;;;;;;;26.13;13.40;;;;;;;0.68;78.67;94176.97;5065722;28;20084;-76
2023/12/20 01:16:52;;;;;;;39.03;14.13;;;;;;;0.64;78.78;94179.28;5065639;28;20371;-76
2023/12/20 01:19:17;;;;;;;31.55;15.13;;;;;;;0.64;78.67;94166.16;5065642;28;20028;-76
2023/12/20 01:21:42;;;;;;;29.80;13.73;;;;;;;0.63;78.87;94163.75;5065364;28;20212;-76
2023/12/20 01:24:08;;;;;;;28.88;13.57;;;;;;;0.60;79.03;94159.81;5065497;28;20021;-76
2023/12/20 01:26:33;;;;;;;29.60;13.65;;;;;;;0.60;78.82;94160.59;5065657;28;20035;-76
2023/12/20 01:28:58;;;;;;;25.42;11.63;;;;;;;0.62;78.40;94156.94;5065339;28;20028;-75
2023/12/20 01:31:24;;;;;;;30.15;14.45;;;;;;;0.58;78.59;94151.38;5065052;28;20308;-75
2023/12/20 01:33:49;;;;;;;26.80;12.35;;;;;;;0.56;78.79;94146.38;5065018;28;20024;-75
2023/12/20 01:36:15;;;;;;;30.05;14.35;;;;;;;0.54;78.98;94139.78;5065447;28;20226;-75
2023/12/20 01:38:40;;;;;;;42.25;17.33;;;;;;;0.56;79.00;94137.72;5065450;28;20037;-75
2023/12/20 01:41:05;;;;;;;33.13;16.60;;;;;;;0.54;79.39;94137.97;5065074;28;20032;-75
2023/12/20 01:43:31;;;;;;;37.03;17.25;;;;;;;0.55;79.58;94130.88;5065004;28;20056;-75
2023/12/20 01:45:58;;;;;;;44.50;20.35;;;;;;;0.55;79.34;94136.94;5065032;28;20227;-75
2023/12/20 01:48:24;;;;;;;38.17;17.92;;;;;;;0.58;80.04;94136.44;5064789;28;20029;-75
2023/12/20 01:50:50;;;;;;;40.80;19.20;;;;;;;0.56;80.19;94120.16;5064699;28;20029;-74
2023/12/20 01:53:18;;;;;;;36.75;18.70;;;;;;;0.56;80.47;94121.97;5065100;28;20092;-75
2023/12/20 01:55:44;;;;;;;42.40;17.50;;;;;;;0.55;80.69;94112.50;5064941;28;20342;-75
2023/12/20 01:58:10;;;;;;;37.67;16.70;;;;;;;0.55;80.55;94113.31;5064910;28;20052;-75
2023/12/20 02:00:37;;;;;;;40.10;19.88;;;;;;;0.54;80.75;94114.34;5064995;28;20099;-74
2023/12/20 02:03:03;;;;;;;41.08;22.05;;;;;;;0.57;80.89;94110.44;5064238;28;20245;-75
2023/12/20 02:05:32;;;;;;;38.38;18.73;;;;;;;0.58;80.77;94114.66;5064579;28;20037;-75
2023/12/20 02:07:58;;;;;;;27.77;14.25;;;;;;;0.59;80.33;94100.50;5064541;28;20227;-75
2023/12/20 02:10:24;;;;;;;35.53;17.52;;;;;;;0.55;80.40;94094.97;5063588;28;20036;-74
2023/12/20 02:12:49;;;;;;;36.20;18.17;;;;;;;0.54;80.82;94103.84;5064698;28;20058;-74
2023/12/20 02:15:15;;;;;;;32.70;16.08;;;;;;;0.54;80.88;94098.63;5064897;28;20334;-74
2023/12/20 02:17:40;;;;;;;35.95;17.02;;;;;;;0.46;80.90;94091.16;5064588;28;20331;-74
2023/12/20 02:20:06;;;;;;;35.08;16.58;;;;;;;0.46;81.12;94093.78;5064198;28;20028;-75
2023/12/20 02:22:32;;;;;;;32.63;15.90;;;;;;;0.48;80.94;94089.09;5064426;28;20025;-74
2023/12/20 02:24:57;;;;;;;48.42;19.83;;;;;;;0.47;81.12;94090.16;5064603;28;20025;-74
2023/12/20 02:27:23;;;;;;;50.17;20.23;;;;;;;0.48;81.57;94085.69;5064256;28;20024;-73
2023/12/20 02:29:49;;;;;;;39.38;17.77;;;;;;;0.47;81.61;94081.47;5064437;28;20021;-74
2023/12/20 02:32:16;;;;;;;38.08;15.95;;;;;;;0.44;81.06;94077.50;5064059;28;20047;-74
2023/12/20 02:34:41;;;;;;;33.00;16.70;;;;;;;0.40;81.25;94071.16;5064005;28;20377;-74
2023/12/20 02:37:07;;;;;;;35.65;16.98;;;;;;;0.43;80.52;94069.88;5064234;28;20091;-74
2023/12/20 02:39:33;;;;;;;36.92;16.92;;;;;;;0.39;80.73;94069.59;5063826;28;20227;-74
2023/12/20 02:41:58;;;;;;;33.75;15.27;;;;;;;0.35;80.88;94063.25;5063979;28;20017;-74
2023/12/20 02:44:24;;;;;;;25.58;11.65;;;;;;;0.38;80.23;94060.13;5063973;28;20024;-74
2023/12/20 02:46:49;;;;;;;30.13;14.63;;;;;;;0.32;80.46;94064.50;5064085;28;20306;-73
2023/12/20 02:49:15;;;;;;;39.03;16.40;;;;;;;0.30;80.51;94061.34;5064205;28;20021;-73
2023/12/20 02:51:40;;;;;;;35.70;16.20;;;;;;;0.30;80.77;94060.56;5063905;28;20017;-73
2023/12/20 02:54:06;;;;;;;38.10;17.55;;;;;;;0.30;80.77;94055.31;5063868;28;20048;-73
2023/12/20 02:56:34;;;;;;;30.33;14.20;;;;;;;0.29;80.40;94061.63;5063992;28;20028;-73
2023/12/20 02:58:59;;;;;;;38.20;17.17;;;;;;;0.31;80.52;94062.16;5063814;28;20043;-74
2023/12/20 03:01:24;;;;;;;38.78;16.80;;;;;;;0.28;81.49;94067.88;5063792;28;20091;-73
2023/12/20 03:03:50;;;;;;;39.85;18.23;;;;;;;0.20;81.87;94063.84;5063794;28;20021;-73
2023/12/20 03:06:18;;;;;;;38.05;18.33;;;;;;;0.16;82.36;94055.69;5063361;28;20272;-73
2023/12/20 03:08:43;;;;;;;38.70;17.85;;;;;;;0.16;82.54;94053.06;5063598;28;20082;-73
2023/12/20 03:11:09;;;;;;;37.08;17.02;;;;;;;0.18;82.20;94051.00;5063413;28;20037;-73
2023/12/20 03:13:34;;;;;;;34.67;17.15;;;;;;;0.22;81.75;94056.53;5063293;28;20318;-75
2023/12/20 03:15:59;;;;;;;46.90;20.10;;;;;;;0.20;82.04;94050.72;5064960;28;20051;-74
2023/12/20 03:18:25;;;;;;;47.72;20.33;;;;;;;0.09;82.73;94054.28;5064438;28;20055;-75
2023/12/20 03:20:50;;;;;;;41.08;20.08;;;;;;;0.10;82.92;94061.09;5063344;28;20246;-75
2023/12/20 03:23:16;;;;;;;40.53;19.08;;;;;;;0.10;83.04;94061.09;5063171;28;20048;-75
2023/12/20 03:25:41;;;;;;;43.00;20.50;;;;;;;0.10;82.50;94046.19;5063550;28;20155;-75
2023/12/20 03:28:06;;;;;;;45.33;20.02;;;;;;;0.11;82.58;94039.88;5063443;28;20198;-74
2023/12/20 03:30:32;;;;;;;41.28;17.52;;;;;;;0.14;82.14;94034.16;5063473;28;20063;-75
2023/12/20 03:32:57;;;;;;;38.40;18.58;;;;;;;0.11;82.34;94039.88;5065063;28;20020;-74
2023/12/20 03:35:23;;;;;;;48.47;17.90;;;;;;;0.11;82.13;94042.50;5065009;28;20262;-73
2023/12/20 03:37:48;;;;;;;43.92;17.90;;;;;;;0.08;82.18;94037.75;5063483;28;20330;-72
2023/12/20 03:40:13;;;;;;;28.38;14.63;;;;;;;0.08;81.69;94031.72;5063161;28;20331;-72
2023/12/20 03:42:39;;;;;;;28.65;13.05;;;;;;;0.06;81.46;94034.59;5063027;28;20029;-72
2023/12/20 03:45:04;;;;;;;25.23;10.88;;;;;;;0.03;81.17;94040.31;5062794;28;20021;-72
2023/12/20 03:47:30;;;;;;;17.13;9.05;;;;;;;0.02;80.62;94038.75;5063022;28;20092;-73
2023/12/20 03:49:55;;;;;;;18.67;9.90;;;;;;;-0.05;80.80;94022.38;5062825;28;20078;-72
2023/12/20 03:52:20;;;;;;;22.92;9.85;;;;;;;-0.05;80.69;94031.03;5062803;28;20029;-73
2023/12/20 03:54:46;;;;;;;19.92;9.98;;;;;;;-0.10;80.74;94027.53;5062964;28;20091;-73
2023/12/20 03:57:11;;;;;;;25.75;10.35;;;;;;;-0.13;80.72;94031.44;5062921;28;20102;-72
2023/12/20 03:59:38;;;;;;;24.63;9.93;;;;;;;-0.13;81.01;94035.91;5063118;28;20141;-73
2023/12/20 04:02:04;;;;;;;27.02;10.13;;;;;;;-0.16;80.92;94031.94;5063054;28;20172;-73
2023/12/20 04:04:30;;;;;;;22.75;10.75;;;;;;;-0.18;81.03;94022.72;5062546;28;20052;-73
2023/12/20 04:06:55;;;;;;;27.48;12.43;;;;;;;-0.15;80.91;94023.03;5063155;28;20025;-73
2023/12/20 04:09:20;;;;;;;35.45;14.13;;;;;;;-0.15;81.21;94017.00;5062861;28;20021;-73
2023/12/20 04:11:46;;;;;;;34.40;15.70;;;;;;;-0.15;81.44;94011.78;5062958;28;20029;-73
2023/12/20 04:14:11;;;;;;;37.70;16.58;;;;;;;-0.18;81.53;94020.09;5062257;28;20035;-74
2023/12/20 04:16:37;;;;;;;35.83;16.05;;;;;;;-0.17;81.63;94003.38;5062593;28;20021;-74
2023/12/20 04:19:02;;;;;;;42.70;18.20;;;;;;;-0.18;81.77;94013.06;5062930;28;20096;-73
2023/12/20 04:21:27;;;;;;;65.03;22.70;;;;;;;-0.22;81.84;94006.72;5063051;28;20070;-73
2023/12/20 04:23:53;;;;;;;67.38;23.35;;;;;;;-0.23;82.36;94011.13;5062924;28;20016;-73
2023/12/20 04:26:18;;;;;;;64.25;26.48;;;;;;;-0.24;82.21;93996.47;5062738;28;20426;-73
2023/12/20 04:28:44;;;;;;;68.28;24.40;;;;;;;-0.23;82.09;94003.28;5066521;28;20039;-74
2023/12/20 04:31:09;;;;;;;60.72;21.23;;;;;;;-0.24;81.94;93998.31;5066564;28;20064;-74
2023/12/20 04:33:34;;;;;;;49.10;19.35;;;;;;;-0.26;81.79;93989.91;5066016;28;20029;-73
2023/12/20 04:36:00;;;;;;;61.55;20.55;;;;;;;-0.29;81.71;93985.13;5066217;28;20096;-73
2023/12/20 04:38:25;;;;;;;86.88;31.25;;;;;;;-0.28;81.72;93981.50;5066209;28;20196;-73
2023/12/20 04:40:51;;;;;;;79.75;26.38;;;;;;;-0.29;81.64;93970.19;5066348;28;20027;-73
2023/12/20 04:43:17;;;;;;;52.63;19.42;;;;;;;-0.29;81.76;93980.69;5066287;28;20323;-73
2023/12/20 04:45:42;;;;;;;55.58;19.83;;;;;;;-0.31;81.48;93977.50;5066329;28;20055;-73
2023/12/20 04:48:08;;;;;;;67.65;21.05;;;;;;;-0.27;81.30;93975.97;5066018;28;20021;-73
2023/12/20 04:50:33;;;;;;;90.78;27.02;;;;;;;-0.29;81.23;93983.28;5066300;28;20028;-73
2023/12/20 04:52:58;;;;;;;66.35;21.15;;;;;;;-0.29;80.44;93967.56;5066162;28;20031;-73
2023/12/20 04:55:24;;;;;;;47.72;16.13;;;;;;;-0.29;81.37;93988.53;5066012;28;20032;-73
2023/12/20 04:57:49;;;;;;;59.35;19.25;;;;;;;-0.30;81.33;93975.69;5065828;28;20044;-73
2023/12/20 05:00:15;;;;;;;66.38;20.70;;;;;;;-0.31;81.77;93972.25;5065965;28;20024;-74
2023/12/20 05:02:41;;;;;;;73.00;21.33;;;;;;;-0.27;81.64;93975.97;5066053;28;20020;-73
2023/12/20 05:05:07;;;;;;;69.00;21.40;;;;;;;-0.28;81.45;93977.03;5065880;28;20020;-73
2023/12/20 05:07:32;;;;;;;60.35;19.98;;;;;;;-0.30;81.15;93973.88;5065586;28;20044;-73
2023/12/20 05:09:58;;;;;;;68.30;21.60;;;;;;;-0.31;81.36;93969.66;5065834;28;20234;-73
2023/12/20 05:12:24;;;;;;;67.78;20.48;;;;;;;-0.29;81.37;93974.66;5065943;28;20035;-74
2023/12/20 05:14:49;;;;;;;64.90;20.63;;;;;;;-0.27;81.17;93959.47;5065892;28;20041;-74
2023/12/20 05:17:15;;;;;;;63.38;18.08;;;;;;;-0.26;80.87;93974.97;5065497;28;20021;-73
2023/12/20 05:19:40;;;;;;;78.00;22.98;;;;;;;-0.28;80.47;93961.31;5065551;28;20024;-73
2023/12/20 05:22:06;;;;;;;70.05;23.33;;;;;;;-0.34;80.39;93967.53;5065780;28;20022;-73
2023/12/20 05:24:31;;;;;;;63.20;21.13;;;;;;;-0.34;80.64;93961.50;5065684;28;20024;-73
2023/12/20 05:26:56;;;;;;;61.25;21.08;;;;;;;-0.33;80.52;93955.22;5065660;28;20029;-73
2023/12/20 05:29:22;;;;;;;54.45;20.27;;;;;;;-0.34;80.03;93954.44;5065515;28;20039;-72
2023/12/20 05:31:47;;;;;;;62.17;19.58;;;;;;;-0.38;80.40;93953.34;5065372;28;20020;-74
2023/12/20 05:34:13;;;;;;;48.08;18.17;;;;;;;-0.47;80.58;93936.44;5065549;28;20016;-74
2023/12/20 05:36:38;;;;;;;37.78;15.95;;;;;;;-0.51;81.01;93948.44;5065487;28;20266;-74
2023/12/20 05:39:04;;;;;;;41.88;17.42;;;;;;;-0.58;81.82;93942.59;5064962;28;20043;-74
2023/12/20 05:41:30;;;;;;;41.08;16.60;;;;;;;-0.66;82.49;93946.41;5065227;28;20311;-74
2023/12/20 05:43:57;;;;;;;44.72;17.63;;;;;;;-0.66;82.23;93943.78;5065384;28;20319;-74
2023/12/20 05:46:23;;;;;;;44.17;19.63;;;;;;;-0.65;82.34;93943.56;5065105;28;20084;-74
2023/12/20 05:48:49;;;;;;;44.30;18.20;;;;;;;-0.65;81.84;93956.63;5065293;28;20021;-74
2023/12/20 05:51:14;;;;;;;46.45;22.23;;;;;;;-0.71;81.44;93948.94;5064018;28;20095;-75
2023/12/20 05:53:40;;;;;;;58.25;23.90;;;;;;;-0.79;82.03;93949.34;5065019;28;20044;-75
2023/12/20 05:56:05;;;;;;;53.22;26.20;;;;;;;-0.83;82.32;93936.75;5064875;28;20029;-75
2023/12/20 05:58:32;;;;;;;54.25;23.33;;;;;;;-0.83;82.44;93922.88;5064973;28;20049;-74
2023/12/20 06:00:57;;;;;;;56.50;21.75;;;;;;;-0.78;82.32;93936.03;5064708;28;20088;-75
2023/12/20 06:03:23;;;;;;;53.38;23.23;;;;;;;-0.82;81.96;93921.84;5064560;28;20024;-73
2023/12/20 06:05:48;;;;;;;53.10;21.40;;;;;;;-0.81;82.16;93933.91;5064656;28;20099;-73
2023/12/20 06:08:14;;;;;;;87.28;36.00;;;;;;;-0.79;82.94;93921.38;5064644;28;20036;-74
2023/12/20 06:10:40;;;;;;;78.68;33.45;;;;;;;-0.86;83.29;93912.88;5064254;28;20028;-72
2023/12/20 06:13:06;;;;;;;96.38;38.88;;;;;;;-0.89;83.69;93929.06;5064508;28;20331;-72
2023/12/20 06:15:32;;;;;;;98.97;39.40;;;;;;;-0.97;82.59;93926.88;5064432;28;20020;-72
2023/12/20 06:17:57;;;;;;;101.95;41.15;;;;;;;-1.10;82.72;93928.78;5063286;28;20032;-72
2023/12/20 06:20:23;;;;;;;88.68;38.72;;;;;;;-1.22;82.85;93941.13;5064626;28;20271;-72
2023/12/20 06:22:48;;;;;;;73.82;33.65;;;;;;;-1.29;83.24;93935.25;5064836;28;20100;-71
2023/12/20 06:25:14;;;;;;;80.80;32.85;;;;;;;-1.35;84.32;93942.22;5064323;28;20341;-72
2023/12/20 06:27:40;;;;;;;72.95;33.20;;;;;;;-1.41;85.40;93933.50;5064240;28;20100;-72
2023/12/20 06:30:07;;;;;;;83.93;34.10;;;;;;;-1.35;85.84;93936.22;5064144;28;20041;-71
2023/12/20 06:32:32;;;;;;;80.07;34.45;;;;;;;-1.25;86.27;93938.97;5064188;28;20044;-71
2023/12/20 06:34:57;;;;;;;84.00;32.42;;;;;;;-1.18;86.47;93933.59;5064058;28;20021;-72
2023/12/20 06:37:23;;;;;;;95.97;41.50;;;;;;;-1.11;85.18;93937.63;5064126;28;20029;-72
2023/12/20 06:39:48;;;;;;;92.53;41.22;;;;;;;-1.12;84.70;93930.84;5064207;28;20223;-72
2023/12/20 06:42:14;;;;;;;104.93;47.80;;;;;;;-1.09;84.87;93927.72;5064225;28;20331;-71
2023/12/20 06:44:39;;;;;;;95.75;43.63;;;;;;;-0.99;84.97;93918.47;5064287;28;20029;-73
2023/12/20 06:47:05;;;;;;;107.22;47.33;;;;;;;-0.94;84.63;93929.00;5063721;28;20024;-73
2023/12/20 06:49:40;;;;;;;114.40;49.13;;;;;;;-0.91;83.74;93910.22;5063309;28;20021;-75
2023/12/20 06:52:05;;;;;;;105.68;47.88;;;;;;;-0.91;83.91;93920.69;5062871;28;20039;-73
2023/12/20 06:54:31;;;;;;;117.43;50.45;;;;;;;-0.89;83.79;93918.59;5062294;28;20256;-74
2023/12/20 06:56:56;;;;;;;124.68;53.50;;;;;;;-0.93;83.91;93912.28;5062110;28;20055;-73
2023/12/20 06:59:22;;;;;;;109.13;49.90;;;;;;;-0.87;83.51;93903.47;5061793;28;20043;-73
2023/12/20 07:01:48;;;;;;;118.88;52.65;;;;;;;-0.91;82.85;93911.00;5062387;28;20031;-73
2023/12/20 07:04:14;;;;;;;115.05;51.50;;;;;;;-0.94;83.03;93915.91;5062544;28;20323;-70
2023/12/20 07:06:39;;;;;;;108.88;50.05;;;;;;;-0.91;83.87;93908.38;5061649;28;20124;-70
2023/12/20 07:09:05;;;;;;;118.93;52.28;;;;;;;-0.84;83.62;93902.97;5062176;28;20062;-70
2023/12/20 07:11:30;;;;;;;127.82;52.75;;;;;;;-0.82;83.82;93908.75;5062791;28;20589;-71
2023/12/20 07:13:55;;;;;;;120.57;54.38;;;;;;;-0.81;83.94;93907.72;5063086;28;20024;-72
2023/12/20 07:16:22;;;;;;;116.32;54.30;;;;;;;-0.73;83.74;93894.22;5063535;28;20382;-73
2023/12/20 07:18:48;;;;;;;125.72;54.38;;;;;;;-0.67;82.96;93895.88;5062518;28;20028;-73
2023/12/20 07:21:13;;;;;;;114.18;53.17;;;;;;;-0.63;83.14;93896.97;5063103;28;20196;-73
2023/12/20 07:23:38;;;;;;;106.55;49.75;;;;;;;-0.49;83.17;93907.09;5063551;28;20044;-73
2023/12/20 07:26:04;;;;;;;104.70;51.50;;;;;;;-0.42;83.66;93886.75;5063481;28;20024;-73
2023/12/20 07:28:29;;;;;;;118.22;55.15;;;;;;;-0.30;83.61;93889.25;5063261;28;20073;-73
2023/12/20 07:30:55;;;;;;;114.82;52.95;;;;;;;-0.42;83.96;93884.16;5061945;28;20115;-73
2023/12/20 07:33:20;;;;;;;115.88;53.83;;;;;;;-0.25;83.86;93881.44;5061511;28;20035;-73
2023/12/20 07:35:45;;;;;;;119.75;51.80;;;;;;;-0.17;83.68;93882.84;5062227;28;20021;-73
2023/12/20 07:38:12;;;;;;;124.28;55.05;;;;;;;-0.04;83.56;93882.44;5062753;28;20036;-73
2023/12/20 07:40:37;;;;;;;107.78;53.22;;;;;;;0.05;83.44;93874.97;5062846;28;20017;-72
2023/12/20 07:43:03;;;;;;;111.43;51.30;;;;;;;0.14;82.41;93879.53;5062822;28;20397;-72
2023/12/20 07:45:28;;;;;;;112.03;54.65;;;;;;;0.23;82.09;93886.94;5063135;28;20088;-72
2023/12/20 07:47:54;;;;;;;114.70;54.55;;;;;;;0.31;80.36;93891.75;5063086;28;20062;-72
2023/12/20 07:50:20;;;;;;;113.72;54.13;;;;;;;0.25;80.46;93879.63;5063023;28;20060;-72
2023/12/20 07:52:45;;;;;;;131.93;56.17;;;;;;;0.24;80.31;93884.06;5061797;28;20087;-72
2023/12/20 07:55:10;;;;;;;136.43;59.67;;;;;;;0.23;80.29;93881.69;5062851;28;20032;-72
2023/12/20 07:57:36;;;;;;;128.52;58.10;;;;;;;0.23;80.34;93882.47;5062611;28;20072;-72
2023/12/20 08:00:03;;;;;;;125.07;58.63;;;;;;;0.27;80.78;93873.09;5063027;28;20086;-72
2023/12/20 08:02:29;;;;;;;126.90;58.28;;;;;;;0.31;80.70;93889.91;5066308;28;20216;-72
2023/12/20 08:04:54;;;;;;;130.05;61.05;;;;;;;0.35;80.93;93863.97;5066909;28;20025;-71
2023/12/20 08:07:19;;;;;;;118.55;58.20;;;;;;;0.34;81.34;93871.03;5065441;28;20052;-72
2023/12/20 08:09:45;;;;;;;156.15;65.95;;;;;;;0.47;81.37;93866.41;5066726;28;20036;-72
2023/12/20 08:12:11;;;;;;;134.07;61.17;;;;;;;0.56;81.16;93863.09;5066833;28;20260;-73
2023/12/20 08:14:37;;;;;;;140.20;61.17;;;;;;;0.65;80.90;93862.63;5066844;28;20029;-74
2023/12/20 08:17:02;;;;;;;124.13;59.42;;;;;;;0.76;80.69;93853.81;5066651;28;20044;-72
2023/12/20 08:19:28;;;;;;;120.50;54.30;;;;;;;0.85;80.22;93870.66;5066966;28;20197;-72
2023/12/20 08:21:53;;;;;;;123.63;58.05;;;;;;;0.86;79.76;93848.63;5066652;28;20303;-73
2023/12/20 08:24:19;;;;;;;125.38;57.45;;;;;;;0.90;80.24;93865.47;5066829;28;20025;-73
2023/12/20 08:26:46;;;;;;;116.47;57.40;;;;;;;0.90;79.57;93862.84;5066382;28;20315;-73
2023/12/20 08:29:13;;;;;;;125.25;57.47;;;;;;;0.91;79.67;93861.78;5066415;28;20089;-72
2023/12/20 08:31:39;;;;;;;121.43;57.67;;;;;;;0.76;80.31;93827.56;5065836;28;20328;-72
2023/12/20 08:34:04;;;;;;;135.73;59.72;;;;;;;0.80;81.37;93860.13;5066156;28;20331;-72
2023/12/20 08:36:29;;;;;;;122.70;58.97;;;;;;;0.73;80.95;93841.19;5065741;28;20092;-72
2023/12/20 08:38:55;;;;;;;128.43;58.38;;;;;;;0.78;81.79;93839.41;5066298;28;20052;-72
2023/12/20 08:41:20;;;;;;;129.85;59.85;;;;;;;0.84;80.79;93831.56;5066107;28;20016;-72
2023/12/20 08:43:46;;;;;;;117.90;57.08;;;;;;;0.90;80.14;93823.47;5065944;28;20028;-72
2023/12/20 08:46:12;;;;;;;129.98;59.03;;;;;;;0.93;80.23;93830.81;5065804;28;20036;-73
2023/12/20 08:48:37;;;;;;;136.27;60.22;;;;;;;1.03;80.21;93831.94;5064775;28;20096;-72
2023/12/20 08:51:04;;;;;;;131.00;57.90;;;;;;;1.05;79.85;93825.38;5064634;28;20032;-72
2023/12/20 08:53:29;;;;;;;123.85;59.22;;;;;;;1.01;80.48;93832.19;5065872;28;20031;-71
2023/12/20 08:55:55;;;;;;;132.32;61.17;;;;;;;1.12;80.42;93820.72;5064328;28;20104;-72
2023/12/20 08:58:20;;;;;;;132.15;61.50;;;;;;;1.05;81.35;93814.88;5065581;28;20126;-72
2023/12/20 09:00:45;;;;;;;140.60;60.45;;;;;;;1.22;80.35;93817.31;5065677;28;20040;-71
2023/12/20 09:03:11;;;;;;;146.60;64.15;;;;;;;1.28;80.26;93813.69;5065659;28;20087;-71
2023/12/20 09:05:36;;;;;;;128.85;62.22;;;;;;;1.26;79.92;93805.25;5065530;28;20279;-72
2023/12/20 09:08:02;;;;;;;137.00;63.80;;;;;;;1.30;80.04;93800.28;5065415;28;20033;-71
2023/12/20 09:10:27;;;;;;;132.40;62.45;;;;;;;1.37;80.22;93799.03;5065484;28;20058;-72
2023/12/20 09:12:57;;;;;;;127.35;60.95;;;;;;;1.47;79.62;93773.84;5064362;28;20131;-72
2023/12/20 09:15:26;;;;;;;133.52;63.08;;;;;;;1.52;79.89;93771.22;5065326;28;20025;-78
2023/12/20 09:17:53;;;;;;;122.25;60.75;;;;;;;1.60;80.03;93762.84;5065447;28;20033;-72
2023/12/20 09:20:19;;;;;;;121.60;60.92;;;;;;;1.76;79.35;93750.53;5065338;28;20036;-72
2023/12/20 09:22:44;;;;;;;134.02;63.38;;;;;;;1.90;79.52;93737.69;5065297;28;20074;-72
2023/12/20 09:25:11;;;;;;;123.22;58.25;;;;;;;2.06;78.62;93735.84;5065061;28;20056;-72
2023/12/20 09:27:36;;;;;;;122.45;57.80;;;;;;;2.13;78.25;93739.78;5065069;28;20314;-72
2023/12/20 09:30:03;;;;;;;128.38;61.72;;;;;;;2.25;78.32;93721.13;5063469;28;20025;-72
2023/12/20 09:32:29;;;;;;;125.75;56.53;;;;;;;2.34;77.80;93724.81;5064750;28;20028;-72
2023/12/20 09:34:55;;;;;;;121.45;58.58;;;;;;;2.39;77.50;93718.75;5063739;28;20032;-72
2023/12/20 09:37:20;;;;;;;116.97;56.28;;;;;;;2.47;77.67;93723.47;5064991;28;20254;-73
2023/12/20 09:39:45;;;;;;;137.00;62.63;;;;;;;2.51;77.22;93714.00;5065035;28;20032;-72
2023/12/20 09:42:17;;;;;;;129.85;62.08;;;;;;;2.61;77.13;93713.97;5064582;28;20074;-73
2023/12/20 09:44:44;;;;;;;143.10;64.55;;;;;;;2.62;77.00;93704.22;5064829;28;20099;-72
2023/12/20 09:47:10;;;;;;;120.75;57.67;;;;;;;2.63;76.87;93694.50;5064581;28;20096;-72
2023/12/20 09:49:37;;;;;;;133.55;58.15;;;;;;;2.65;77.44;93697.66;5064810;28;20060;-73
2023/12/20 09:52:06;;;;;;;104.75;52.10;;;;;;;2.73;77.15;93690.00;5064485;28;20028;-72
2023/12/20 09:54:31;;;;;;;102.07;51.20;;;;;;;2.88;76.66;93691.78;5063560;28;20327;-72
2023/12/20 09:56:57;;;;;;;101.82;50.95;;;;;;;3.00;76.20;93683.59;5064613;28;20071;-71
2023/12/20 09:59:22;;;;;;;97.30;50.00;;;;;;;2.93;76.62;93694.41;5063393;28;20220;-71
2023/12/20 10:01:48;;;;;;;98.25;46.85;;;;;;;3.10;76.38;93696.72;5064480;28;20029;-72
2023/12/20 10:04:14;;;;;;;96.40;44.05;;;;;;;3.30;76.01;93676.63;5064362;28;20032;-72
2023/12/20 10:06:43;;;;;;;86.82;43.10;;;;;;;3.50;75.40;93686.22;5064422;28;20040;-71
2023/12/20 10:09:12;;;;;;;92.38;40.45;;;;;;;3.73;74.29;93672.38;5064258;28;20039;-71
2023/12/20 10:11:38;;;;;;;83.30;38.45;;;;;;;3.78;72.13;93666.28;5064239;28;20025;-71
2023/12/20 10:14:05;;;;;;;84.32;40.17;;;;;;;3.77;71.50;93664.72;5064091;28;20021;-72
2023/12/20 10:16:32;;;;;;;86.85;40.22;;;;;;;3.69;73.25;93652.91;5064041;28;20013;-72
2023/12/20 10:18:58;;;;;;;88.18;40.65;;;;;;;3.72;72.45;93668.16;5064035;28;20024;-71
2023/12/20 10:21:26;;;;;;;81.88;39.60;;;;;;;3.64;71.85;93655.56;5064045;28;20054;-72
2023/12/20 10:23:55;;;;;;;87.70;41.13;;;;;;;3.49;72.83;93645.16;5063639;28;20047;-71
2023/12/20 10:26:25;;;;;;;90.03;44.25;;;;;;;3.55;73.85;93644.06;5063429;28;20096;-71
2023/12/20 10:28:55;;;;;;;103.45;45.25;;;;;;;3.68;72.52;93640.00;5064088;28;20041;-72
2023/12/20 10:31:34;;;;;;;99.45;44.22;;;;;;;3.70;72.84;93622.84;5063587;28;20346;-72
2023/12/20 10:34:01;;;;;;;98.88;44.88;;;;;;;3.76;73.00;93623.59;5063871;28;20029;-71
2023/12/20 10:36:30;;;;;;;95.30;46.70;;;;;;;3.76;72.74;93616.47;5063792;28;20029;-71
2023/12/20 10:38:59;;;;;;;91.97;47.50;;;;;;;3.73;73.27;93622.31;5063912;28;20052;-71
2023/12/20 10:41:29;;;;;;;107.05;50.47;;;;;;;3.76;73.15;93616.47;5063825;28;20025;-71
2023/12/20 10:44:07;;;;;;;105.55;49.80;;;;;;;3.78;72.91;93609.06;5063904;28;20056;-72
2023/12/20 10:46:34;;;;;;;107.57;52.83;;;;;;;3.78;72.92;93598.53;5064069;28;20096;-72
2023/12/20 10:49:02;;;;;;;114.20;53.63;;;;;;;3.77;72.73;93612.78;5062029;28;20029;-71
2023/12/20 10:51:29;;;;;;;109.47;52.63;;;;;;;3.76;73.70;93590.09;5063272;28;20092;-72
2023/12/20 10:53:56;;;;;;;117.03;55.85;;;;;;;3.69;73.39;93589.66;5063558;28;20017;-72
2023/12/20 10:56:23;;;;;;;111.55;53.80;;;;;;;3.64;74.08;93592.31;5063417;28;20021;-73
2023/12/20 10:58:50;;;;;;;114.68;56.08;;;;;;;3.63;73.89;93596.03;5062965;28;20102;-72
2023/12/20 11:01:18;;;;;;;111.95;54.65;;;;;;;3.69;74.05;93589.66;5061835;28;20024;-72
2023/12/20 11:03:52;;;;;;;120.22;58.03;;;;;;;3.67;74.47;93581.22;5063428;28;20040;-72
2023/12/20 11:06:26;;;;;;;116.20;54.10;;;;;;;3.65;75.05;93575.44;5063486;28;20017;-72
2023/12/20 11:09:09;;;;;;;121.97;57.33;;;;;;;3.71;74.91;93573.56;5063139;28;20037;-72
2023/12/20 11:11:46;;;;;;;119.93;54.75;;;;;;;3.82;74.44;93567.91;5063009;28;20029;-72
2023/12/20 11:14:19;;;;;;;124.72;55.60;;;;;;;3.94;74.23;93567.53;5061931;28;20025;-72